Mill Village, Vermont
Current Conditions -  °F | °C
As of 4:54 AM on Thursday 29 Jan 2015 (Local Time) from KMVL Reporting Station
Clear Clear  
Wind Chill: -12°   Ceiling: Unl
Heat Index: -12°   Visibility: 8mi
Dew Point: -19°   Wind: 0mph
Humidity: 71%   Direction: NA
Pressure: 30.31"   Gusts: NA
Location:  44.6584°N, 72.4169°W
Report Text: KMVL 290954Z AUTO 00000KT 8SM CLR M24/M28 A3031 RMK AO2 SLP285 T12441283 TSNO
Loading
Personal Weather Stations






























Interactive Weather Map New forecast layout! Learn more

10-Day Weather Forecast

Advertisements
Track Severe Weather on mobile